AirNav   Air Wisconsin Up To $57,000 Bonus
 
 1621 users online  

MU67 DST Heliport
Kansas City, Missouri, USA

GOING TO KANSAS CITY?


FAA INFORMATION EFFECTIVE 17 JUNE 2021

Location

FAA Identifier: MU67
Lat/Long: 39-00-43.0200N 094-30-37.8330W
39-00.717000N 094-30.630550W
39.0119500,-94.5105092
(estimated)
Elevation: 722 ft. / 220 m (estimated)
Variation: 05E (1990)
Time zone: UTC -5 (UTC -6 during Standard Time)
Zip code: 64133

Heliport Operations

Heliport use: Private use. Permission required prior to landing
Activation date: 02/1994
Control tower: no
ARTCC: KANSAS CITY CENTER
FSS: COLUMBIA FLIGHT SERVICE STATION
Attendance: UNATNDD
Wind indicator: yes
Segmented circle: no

Heliport Communications

WX ASOS at LXT (7 nm SE): 124.175 (816-347-9807)
WX ASOS at MKC (8 nm NW): PHONE 816-329-2843
WX ASOS at OJC (14 nm SW): PHONE 913-780-6969
WX ASOS at MCI (20 nm NW): PHONE 816-329-2808

Nearby radio navigation aids

VOR radial/distance  VOR name  Freq  Var
ANXr247/18.5NAPOLEON VORTAC114.0007E
MCIr142/19.5KANSAS CITY VORTAC113.2505E

Heliport Services

Runway Information

Helipad H1

Dimensions: 30 x 30 ft. / 9 x 9 m
Surface: turf
Traffic pattern: leftleft

Heliport Ownership and Management from official FAA records

Ownership: Privately-owned
Owner: DST SYSTEMS INC
7201 E 64 ST
KANSAS CITY, MO 64153
Phone 816-737-6914
Manager: JOSEPH ALVAREZ
7201 E 64 ST
KANSAS CITY, MO 64153
Phone 816-737-4073
RUSSELL FOTOVICH 816-737-9768

Additional Remarks

OWNER DESIRES ARPT NOT BE CHARTED.
FOR CD CTC KANSAS CITY APCH AT 816-329-2710.

Instrument Procedures

There are no published instrument procedures at MU67.

Some nearby airports with instrument procedures:

KLXT - Lee's Summit Municipal Airport (7 nm SE)
KMKC - Charles B Wheeler Downtown Airport (8 nm NW)
3GV - East Kansas City Airport (14 nm E)
KOJC - Johnson County Executive Airport (14 nm SW)
KMCI - Kansas City International Airport (20 nm NW)
 
Loc | Ops | Rwys | IFR | FBO | Links
Com | Nav | Svcs | Stats | Notes
Area around MU67 (DST Heliport)
 
Road maps at: MapQuest Bing Google
 
Aerial photo
No photo
 
Sectional chart

 
Airport distance calculator
Flying to DST Heliport? Find the distance to fly.

From to MU67

Sunrise and sunset
Times for 21-Jun-2021
 Local
(UTC-5)
 Zulu
(UTC)
Morning civil twilight05:2110:21
Sunrise05:5310:53
Sunset20:4601:46
Evening civil twilight21:1802:18

Current date and time
Zulu (UTC)  21-Jun-2021 17:36:45
Local (UTC-5)  21-Jun-2021 12:36:45
 
METAR
KLXT 
7nm E 
210153Z AUTO 26007KT 10SM TS BKN065 BKN110 31/22 A2957 RMK AO2 LTG DSNT E AND SW RAB34E47 TSB45 SLP003 P0002 T03060217
KMKC 
8nm NW 
211654Z 33005KT 10SM BKN120 21/09 A3001 RMK AO2 SLP155 T02110094
KOJC 
14nm SW 
211653Z 01009KT 10SM BKN110 21/09 A3003 RMK AO2 SLP157 T02110094
TAF
KMKC 
8nm NW 
211127Z 2112/2212 34008KT P6SM OVC120 TEMPO 2112/2114 -SHRA FM211800 35012G18KT P6SM FEW150 FM212200 35009KT P6SM FEW200 FM220100 02006KT P6SM SKC
NOTAMs
Click for the latest NOTAMs
NOTAMs are issued by the DoD/FAA and will open in a separate window not controlled by AirNav.

 

 
 

Would you like to see your business listed on this page?

 If your business provides an interesting product or service to pilots, flight crews, aircraft, or users of the DST Heliport, you should consider listing it here.  To start the listing process, click on the button below
 
Add a business
 

Other Pages about DST Heliport

Update a link
 
Copyright © AirNav, LLC. All rights reserved. Privacy Policy  Contact